Time;durP1;ratioP1;P1;durP2;ratioP2;P2;SDS_P1;SDS_P2;PMS_P1;PMS_P2;Temp;Humidity;BMP_temperature;BMP_pressure;BME280_temperature;BME280_humidity;BME280_pressure;Samples;Min_cycle;Max_cycle;Signal;HPM_P1;HPM_P2
2024/02/22 00:01:14;;;;;;;1.23;0.43;;;;;;;8.51;100.00;99717.72;5029619;28;20036;-79
2024/02/22 00:03:39;;;;;;;0.98;0.55;;;;;;;8.55;100.00;99717.22;5032302;28;20115;-79
2024/02/22 00:06:05;;;;;;;0.70;0.40;;;;;;;8.53;100.00;99708.00;5044995;28;20041;-80
2024/02/22 00:08:31;;;;;;;2.17;0.60;;;;;;;8.50;100.00;99710.94;5047584;28;20025;-79
2024/02/22 00:10:57;;;;;;;0.90;0.60;;;;;;;8.48;100.00;99715.47;5047841;28;20123;-79
2024/02/22 00:13:26;;;;;;;2.75;0.70;;;;;;;8.51;100.00;99712.53;5049860;28;20037;-79
2024/02/22 00:15:51;;;;;;;1.38;0.60;;;;;;;8.53;100.00;99710.59;5031551;28;20048;-79
2024/02/22 00:18:17;;;;;;;0.80;0.50;;;;;;;8.46;100.00;99705.31;5045189;28;20048;-79
2024/02/22 00:20:43;;;;;;;1.52;0.70;;;;;;;8.53;100.00;99702.84;5047767;28;20044;-79
2024/02/22 00:23:08;;;;;;;1.60;0.65;;;;;;;8.50;100.00;99705.78;5030717;28;20033;-78
2024/02/22 00:25:33;;;;;;;1.55;0.70;;;;;;;8.54;100.00;99694.13;5011096;28;20056;-78
2024/02/22 00:27:59;;;;;;;0.57;0.50;;;;;;;8.54;100.00;99678.63;5029081;28;20021;-78
2024/02/22 00:30:25;;;;;;;0.88;0.60;;;;;;;8.54;100.00;99687.16;5012964;28;20446;-77
2024/02/22 00:32:51;;;;;;;1.85;0.50;;;;;;;8.49;100.00;99686.06;5047545;28;20045;-79
2024/02/22 00:35:17;;;;;;;0.80;0.50;;;;;;;8.55;100.00;99683.63;5028536;28;20083;-79
2024/02/22 00:37:43;;;;;;;0.65;0.50;;;;;;;8.66;100.00;99681.63;5030050;28;20029;-79
2024/02/22 00:40:14;;;;;;;0.70;0.60;;;;;;;8.62;100.00;99681.16;5028509;28;20395;-79
2024/02/22 00:42:43;;;;;;;0.70;0.50;;;;;;;8.59;100.00;99671.16;5011917;28;20048;-78
2024/02/22 00:45:10;;;;;;;0.52;0.28;;;;;;;8.61;100.00;99673.56;5027481;28;20025;-79
2024/02/22 00:47:35;;;;;;;1.67;0.50;;;;;;;8.54;100.00;99669.09;5028524;28;20041;-79
2024/02/22 00:50:01;;;;;;;0.52;0.50;;;;;;;8.56;100.00;99666.34;5042247;28;20435;-79
2024/02/22 00:52:26;;;;;;;0.95;0.40;;;;;;;8.66;100.00;99650.59;5027634;28;20037;-79
2024/02/22 00:54:52;;;;;;;0.50;0.30;;;;;;;8.52;100.00;99645.19;5028615;28;20032;-78
2024/02/22 00:57:17;;;;;;;0.70;0.50;;;;;;;8.58;100.00;99639.34;5041080;28;20044;-78
2024/02/22 00:59:43;;;;;;;2.40;0.75;;;;;;;8.59;100.00;99645.34;5031282;28;20033;-78
2024/02/22 01:02:08;;;;;;;1.40;0.60;;;;;;;8.68;100.00;99633.16;5029042;28;20037;-79
2024/02/22 01:04:34;;;;;;;1.63;0.60;;;;;;;8.61;100.00;99629.63;5029078;28;20029;-79
2024/02/22 01:06:59;;;;;;;0.60;0.50;;;;;;;8.61;100.00;99621.88;5044923;28;20075;-78
2024/02/22 01:09:25;;;;;;;0.50;0.40;;;;;;;8.66;100.00;99615.22;5010966;28;20041;-77
2024/02/22 01:11:50;;;;;;;0.90;0.55;;;;;;;8.63;100.00;99610.41;5029908;28;20045;-78
2024/02/22 01:14:19;;;;;;;1.15;0.50;;;;;;;8.66;100.00;99610.06;5028339;28;20415;-78
2024/02/22 01:16:45;;;;;;;1.17;0.43;;;;;;;8.69;100.00;99603.75;5043371;28;20048;-78
2024/02/22 01:19:11;;;;;;;2.60;0.77;;;;;;;8.73;100.00;99599.84;5045213;28;20424;-79
2024/02/22 01:21:36;;;;;;;0.90;0.50;;;;;;;8.73;100.00;99602.44;5045049;28;20043;-79
2024/02/22 01:24:02;;;;;;;1.02;0.60;;;;;;;8.70;100.00;99595.00;5047061;28;20515;-79
2024/02/22 01:26:27;;;;;;;0.88;0.30;;;;;;;8.75;100.00;99590.13;5046259;28;20572;-79
2024/02/22 01:28:53;;;;;;;0.52;0.30;;;;;;;8.66;100.00;99589.38;5025036;28;20029;-79
2024/02/22 01:31:18;;;;;;;0.80;0.40;;;;;;;8.67;100.00;99585.03;5029343;28;20420;-79
2024/02/22 01:33:46;;;;;;;2.75;0.40;;;;;;;8.60;100.00;99577.16;5031041;28;20431;-79
2024/02/22 01:36:12;;;;;;;0.38;0.35;;;;;;;8.69;100.00;99576.13;5026117;28;20116;-79
2024/02/22 01:38:37;;;;;;;0.77;0.55;;;;;;;8.65;100.00;99571.47;5024559;28;20028;-78
2024/02/22 01:41:03;;;;;;;2.03;0.40;;;;;;;8.58;100.00;99566.19;5029853;28;20044;-78
2024/02/22 01:43:28;;;;;;;0.90;0.50;;;;;;;8.61;100.00;99565.84;5030860;28;20067;-79
2024/02/22 01:45:56;;;;;;;0.40;0.30;;;;;;;8.57;100.00;99569.75;5042117;28;20102;-80
2024/02/22 01:48:21;;;;;;;1.08;0.43;;;;;;;8.55;100.00;99561.34;5028634;28;20025;-79
2024/02/22 01:50:52;;;;;;;0.50;0.40;;;;;;;8.73;100.00;99561.88;5040918;28;20040;-79
2024/02/22 01:53:26;;;;;;;0.60;0.30;;;;;;;8.76;100.00;99563.31;5008962;28;20025;-79
2024/02/22 01:55:54;;;;;;;0.30;0.30;;;;;;;8.75;100.00;99559.13;5035383;28;20064;-79
2024/02/22 01:58:21;;;;;;;2.35;0.28;;;;;;;8.73;100.00;99553.31;5027872;28;20025;-79
2024/02/22 02:00:47;;;;;;;0.65;0.30;;;;;;;8.76;100.00;99545.22;5028741;28;20878;-79
2024/02/22 02:03:12;;;;;;;1.85;0.20;;;;;;;8.81;100.00;99542.09;5022651;28;20034;-78
2024/02/22 02:05:38;;;;;;;1.00;0.40;;;;;;;8.79;100.00;99533.72;5025456;28;20044;-79
2024/02/22 02:08:04;;;;;;;2.05;0.32;;;;;;;8.68;100.00;99528.00;5044679;28;20029;-79
2024/02/22 02:10:29;;;;;;;2.30;0.20;;;;;;;8.73;100.00;99528.28;5012552;28;20658;-79
2024/02/22 02:13:05;;;;;;;0.32;0.30;;;;;;;8.72;100.00;99531.03;5046923;28;20472;-79
2024/02/22 02:15:32;;;;;;;0.43;0.38;;;;;;;8.71;100.00;99532.81;5044465;28;20140;-79
2024/02/22 02:17:57;;;;;;;0.55;0.38;;;;;;;8.89;100.00;99521.34;5013319;28;20029;-79
2024/02/22 02:20:26;;;;;;;1.00;0.40;;;;;;;8.88;100.00;99524.94;5048197;28;20056;-79
2024/02/22 02:23:07;;;;;;;0.55;0.38;;;;;;;8.91;100.00;99519.38;5048191;28;20033;-79
2024/02/22 02:25:33;;;;;;;0.20;0.20;;;;;;;8.84;100.00;99521.88;5029954;28;20025;-79
2024/02/22 02:27:58;;;;;;;2.00;0.38;;;;;;;8.81;100.00;99524.00;5045645;28;20025;-79
2024/02/22 02:30:24;;;;;;;0.20;0.20;;;;;;;8.94;100.00;99514.66;5013726;28;20037;-78
2024/02/22 02:32:49;;;;;;;0.30;0.30;;;;;;;8.88;100.00;99512.00;5029701;28;20029;-79
2024/02/22 02:35:15;;;;;;;0.30;0.30;;;;;;;8.81;100.00;99508.50;5032587;28;20032;-79
2024/02/22 02:37:40;;;;;;;0.75;0.40;;;;;;;8.86;100.00;99504.41;5032426;28;20099;-79
2024/02/22 02:40:06;;;;;;;0.47;0.40;;;;;;;8.90;100.00;99504.88;5018488;28;20039;-79
2024/02/22 02:42:31;;;;;;;1.05;0.30;;;;;;;8.94;100.00;99501.75;5031947;28;20120;-79
2024/02/22 02:44:57;;;;;;;0.60;0.40;;;;;;;8.81;100.00;99495.59;5016700;28;20032;-79
2024/02/22 02:47:22;;;;;;;0.43;0.30;;;;;;;8.88;100.00;99491.31;5032105;28;20041;-79
2024/02/22 02:49:48;;;;;;;0.90;0.45;;;;;;;8.95;100.00;99484.47;5050817;28;20037;-79
2024/02/22 02:52:13;;;;;;;0.90;0.52;;;;;;;8.96;100.00;99480.88;5049607;28;20088;-79
2024/02/22 02:54:39;;;;;;;0.90;0.52;;;;;;;8.92;100.00;99474.47;5052115;28;20033;-79
2024/02/22 02:57:04;;;;;;;1.48;0.50;;;;;;;8.84;100.00;99469.38;5018920;28;20508;-78
2024/02/22 02:59:30;;;;;;;0.60;0.55;;;;;;;8.87;100.00;99474.19;5016405;28;20064;-79
2024/02/22 03:01:55;;;;;;;0.60;0.40;;;;;;;8.75;100.00;99468.66;5030878;28;20082;-79
2024/02/22 03:04:21;;;;;;;2.00;0.52;;;;;;;8.79;100.00;99467.31;5033159;28;20044;-79
2024/02/22 03:06:46;;;;;;;0.52;0.47;;;;;;;8.84;100.00;99462.44;5029897;28;20038;-79
2024/02/22 03:09:12;;;;;;;0.50;0.50;;;;;;;8.92;100.00;99459.75;5034292;28;20033;-79
2024/02/22 03:11:38;;;;;;;3.90;0.70;;;;;;;8.94;100.00;99457.78;5049929;28;20492;-79
2024/02/22 03:14:03;;;;;;;2.35;0.55;;;;;;;8.95;100.00;99463.78;5034812;28;20595;-79
2024/02/22 03:16:29;;;;;;;1.02;0.50;;;;;;;8.97;100.00;99461.81;5049015;28;20045;-79
2024/02/22 03:18:55;;;;;;;0.73;0.57;;;;;;;8.99;100.00;99456.47;5051063;28;20025;-79
2024/02/22 03:21:21;;;;;;;0.90;0.70;;;;;;;8.96;100.00;99457.63;5017803;28;20052;-79
2024/02/22 03:23:47;;;;;;;1.08;0.70;;;;;;;9.03;100.00;99460.31;5035827;28;20028;-79
2024/02/22 03:26:13;;;;;;;0.70;0.60;;;;;;;8.90;100.00;99455.75;5050749;28;20065;-79
2024/02/22 03:28:38;;;;;;;1.85;0.70;;;;;;;8.88;100.00;99455.13;5050610;28;20060;-79
2024/02/22 03:31:04;;;;;;;3.20;0.60;;;;;;;8.85;100.00;99464.03;5033165;28;20037;-79
2024/02/22 03:33:30;;;;;;;2.03;0.88;;;;;;;8.94;100.00;99444.88;5049130;28;20025;-79
2024/02/22 03:36:00;;;;;;;1.13;0.70;;;;;;;8.88;100.00;99453.34;5032408;28;20408;-80
2024/02/22 03:38:26;;;;;;;1.58;0.90;;;;;;;8.87;100.00;99450.94;5012381;28;20480;-79
2024/02/22 03:40:53;;;;;;;3.83;0.98;;;;;;;8.85;100.00;99442.53;5050457;28;20040;-80
2024/02/22 03:43:19;;;;;;;1.08;0.75;;;;;;;8.80;100.00;99440.50;5023920;28;20071;-79
2024/02/22 03:45:45;;;;;;;1.20;0.80;;;;;;;8.83;100.00;99444.50;5016549;28;20119;-79
2024/02/22 03:48:11;;;;;;;1.27;0.80;;;;;;;8.86;100.00;99433.81;5029528;28;20040;-80
2024/02/22 03:50:36;;;;;;;1.45;0.90;;;;;;;8.77;100.00;99441.66;5030789;28;20053;-81
2024/02/22 03:53:02;;;;;;;3.42;1.10;;;;;;;8.86;100.00;99431.25;5047628;28;20064;-80
2024/02/22 03:55:27;;;;;;;1.20;1.10;;;;;;;8.82;100.00;99430.78;5046430;28;20025;-79
2024/02/22 03:57:53;;;;;;;1.88;1.20;;;;;;;8.91;100.00;99424.56;5016925;28;20036;-80
2024/02/22 04:00:18;;;;;;;1.67;1.20;;;;;;;8.93;100.00;99422.59;5030589;28;20172;-80
2024/02/22 04:02:46;;;;;;;2.83;1.05;;;;;;;8.85;100.00;99414.13;5011556;28;20025;-79
2024/02/22 04:05:14;;;;;;;2.50;1.30;;;;;;;8.89;100.00;99415.34;5009862;28;20021;-80
2024/02/22 04:07:42;;;;;;;1.38;1.00;;;;;;;8.80;100.00;99411.25;5024611;28;20046;-80
2024/02/22 04:10:09;;;;;;;2.53;1.13;;;;;;;8.75;100.00;99404.84;5045772;28;20058;-81
2024/02/22 04:12:34;;;;;;;2.97;1.40;;;;;;;8.92;100.00;99404.66;5020724;28;20039;-80
2024/02/22 04:15:00;;;;;;;2.17;1.45;;;;;;;8.96;100.00;99396.38;5050929;28;20037;-80
2024/02/22 04:17:26;;;;;;;1.77;1.10;;;;;;;8.86;100.00;99392.47;5007235;28;20087;-80
2024/02/22 04:19:52;;;;;;;2.10;1.88;;;;;;;8.95;100.00;99393.97;5013909;28;20033;-79
2024/02/22 04:22:18;;;;;;;2.05;1.30;;;;;;;8.93;100.00;99383.03;5029260;28;20088;-80
2024/02/22 04:24:44;;;;;;;1.50;1.38;;;;;;;8.94;100.00;99387.19;5018690;28;20432;-79
2024/02/22 04:27:09;;;;;;;1.80;1.40;;;;;;;9.01;100.00;99382.13;5033255;28;20092;-79
2024/02/22 04:29:37;;;;;;;1.65;1.17;;;;;;;8.98;100.00;99377.28;5027921;28;20505;-79
2024/02/22 04:32:03;;;;;;;2.08;1.50;;;;;;;8.91;100.00;99370.25;5029736;28;20041;-79
2024/02/22 04:34:29;;;;;;;3.78;1.45;;;;;;;8.86;100.00;99371.78;5012089;28;20033;-80
2024/02/22 04:36:55;;;;;;;2.15;1.30;;;;;;;8.82;100.00;99362.78;5006349;28;20519;-80
2024/02/22 04:39:20;;;;;;;2.83;1.80;;;;;;;8.79;100.00;99368.31;5044337;28;20030;-80
2024/02/22 04:41:46;;;;;;;2.65;1.70;;;;;;;8.84;100.00;99361.63;5049316;28;20047;-79
2024/02/22 04:44:12;;;;;;;1.63;1.52;;;;;;;8.79;100.00;99366.50;5015355;28;20348;-78
2024/02/22 04:46:38;;;;;;;3.60;1.63;;;;;;;8.80;100.00;99360.38;5013016;28;20091;-80
2024/02/22 04:49:04;;;;;;;1.77;1.58;;;;;;;8.83;100.00;99354.84;5015344;28;20288;-80
2024/02/22 04:51:33;;;;;;;2.25;1.50;;;;;;;8.91;100.00;99361.69;5008417;28;20496;-79
2024/02/22 04:54:00;;;;;;;1.63;1.42;;;;;;;8.82;100.00;99358.41;5027103;28;20060;-79
2024/02/22 04:56:28;;;;;;;2.20;1.80;;;;;;;8.79;100.00;99361.34;5045362;28;20125;-79
2024/02/22 04:58:57;;;;;;;4.55;1.98;;;;;;;8.85;100.00;99359.81;5011572;28;20461;-79
2024/02/22 05:01:26;;;;;;;2.35;1.30;;;;;;;8.80;100.00;99350.03;5027881;28;20044;-79
2024/02/22 05:03:51;;;;;;;2.33;1.73;;;;;;;8.86;100.00;99354.47;5030323;28;20115;-79
2024/02/22 05:06:17;;;;;;;3.15;1.50;;;;;;;8.96;100.00;99351.63;5046505;28;20191;-79
2024/02/22 05:08:42;;;;;;;2.03;1.70;;;;;;;8.89;100.00;99342.97;5047512;28;20044;-79
2024/02/22 05:11:08;;;;;;;2.00;1.33;;;;;;;8.85;100.00;99344.31;5029584;28;20033;-79
2024/02/22 05:13:34;;;;;;;2.33;1.45;;;;;;;8.83;100.00;99347.06;5031433;28;20041;-78
2024/02/22 05:15:59;;;;;;;2.05;1.63;;;;;;;8.88;100.00;99346.56;5013091;28;20056;-79
2024/02/22 05:18:25;;;;;;;3.22;1.48;;;;;;;8.91;100.00;99339.25;5047453;28;20025;-79
2024/02/22 05:20:51;;;;;;;2.58;1.52;;;;;;;8.86;100.00;99331.22;5029833;28;20037;-79
2024/02/22 05:23:16;;;;;;;1.73;1.35;;;;;;;8.83;100.00;99326.41;5014671;28;20184;-80
2024/02/22 05:25:42;;;;;;;1.70;1.40;;;;;;;8.89;100.00;99324.88;5027953;28;20043;-79
2024/02/22 05:28:08;;;;;;;2.65;1.60;;;;;;;8.80;100.00;99331.13;5028502;28;20025;-79
2024/02/22 05:30:34;;;;;;;2.20;1.42;;;;;;;8.76;100.00;99317.78;5012014;28;20036;-79
2024/02/22 05:32:59;;;;;;;2.72;1.70;;;;;;;8.86;100.00;99320.88;5013337;28;20533;-79
2024/02/22 05:35:25;;;;;;;2.40;1.63;;;;;;;8.85;100.00;99318.47;5047476;28;20044;-79
2024/02/22 05:37:50;;;;;;;1.98;1.40;;;;;;;8.91;100.00;99317.75;5045863;28;20040;-79
2024/02/22 05:40:16;;;;;;;2.22;1.35;;;;;;;8.94;100.00;99309.63;5028283;28;20039;-79
2024/02/22 05:42:42;;;;;;;2.35;1.20;;;;;;;8.96;100.00;99313.63;5026768;28;20029;-78
2024/02/22 05:45:08;;;;;;;1.33;1.20;;;;;;;8.89;100.00;99311.94;5029499;28;20028;-78
2024/02/22 05:47:33;;;;;;;1.35;1.10;;;;;;;8.90;100.00;99306.59;5025921;28;20495;-79
2024/02/22 05:49:59;;;;;;;2.33;1.58;;;;;;;8.92;100.00;99314.19;5018685;28;20047;-80
2024/02/22 05:52:24;;;;;;;3.35;1.50;;;;;;;8.84;100.00;99320.25;5010940;28;20041;-79
2024/02/22 05:54:49;;;;;;;2.15;1.27;;;;;;;8.87;100.00;99309.56;5015208;28;20028;-79
2024/02/22 05:57:15;;;;;;;6.82;3.15;;;;;;;8.93;100.00;99318.38;5011647;28;20045;-78
2024/02/22 05:59:40;;;;;;;9.48;3.38;;;;;;;8.85;100.00;99328.81;5048999;28;20487;-79
2024/02/22 06:02:06;;;;;;;13.55;5.03;;;;;;;8.82;100.00;99319.66;5032902;28;20411;-78
2024/02/22 06:04:31;;;;;;;9.95;4.78;;;;;;;8.82;100.00;99326.59;5031199;28;20045;-79
2024/02/22 06:06:57;;;;;;;8.75;3.78;;;;;;;8.84;100.00;99314.31;5026684;28;20032;-79
2024/02/22 06:09:22;;;;;;;8.00;2.78;;;;;;;8.81;100.00;99304.31;5045367;28;20029;-79
2024/02/22 06:11:48;;;;;;;9.25;2.25;;;;;;;8.86;100.00;99294.25;5031070;28;20049;-79
2024/02/22 06:14:13;;;;;;;15.27;2.35;;;;;;;8.83;100.00;99295.38;5032842;28;20037;-79
2024/02/22 06:16:39;;;;;;;3.45;2.00;;;;;;;8.95;100.00;99285.41;5045829;28;20491;-78
2024/02/22 06:19:05;;;;;;;3.00;1.92;;;;;;;8.93;100.00;99285.56;5047749;28;20442;-79
2024/02/22 06:21:31;;;;;;;1.95;1.35;;;;;;;9.02;100.00;99278.50;5015635;28;20044;-79
2024/02/22 06:23:56;;;;;;;2.15;1.40;;;;;;;8.91;100.00;99276.38;5032058;28;20051;-79
2024/02/22 06:26:22;;;;;;;2.83;1.20;;;;;;;8.92;100.00;99273.63;5049425;28;20040;-78
2024/02/22 06:28:47;;;;;;;1.90;1.10;;;;;;;8.87;100.00;99255.28;5014917;28;20036;-79
2024/02/22 06:31:13;;;;;;;2.20;1.85;;;;;;;8.87;100.00;99259.63;5027909;28;20049;-79
2024/02/22 06:33:39;;;;;;;4.80;1.30;;;;;;;8.87;100.00;99257.88;5015645;28;20037;-79
2024/02/22 06:36:06;;;;;;;1.38;1.00;;;;;;;8.89;100.00;99257.66;5030066;28;20044;-79
2024/02/22 06:38:31;;;;;;;1.00;0.70;;;;;;;8.91;100.00;99259.09;5028573;28;20483;-79
2024/02/22 06:40:58;;;;;;;0.82;0.60;;;;;;;9.00;100.00;99252.03;5026907;28;20048;-78
2024/02/22 06:43:23;;;;;;;1.60;0.80;;;;;;;8.86;100.00;99234.78;5046259;28;20033;-79
2024/02/22 06:45:49;;;;;;;1.27;0.80;;;;;;;8.89;100.00;99224.06;5046471;28;20056;-79
2024/02/22 06:48:14;;;;;;;1.13;0.85;;;;;;;8.87;100.00;99226.03;5031365;28;20398;-79
2024/02/22 06:50:40;;;;;;;4.40;1.05;;;;;;;8.88;100.00;99220.69;5025714;28;20048;-79
2024/02/22 06:53:06;;;;;;;2.70;0.82;;;;;;;8.91;100.00;99206.59;5029776;28;20032;-79
2024/02/22 06:55:33;;;;;;;1.23;0.75;;;;;;;8.87;100.00;99213.94;5027828;28;20543;-79
2024/02/22 06:58:01;;;;;;;2.17;0.75;;;;;;;8.86;100.00;99211.53;5026249;28;20638;-79
2024/02/22 07:00:26;;;;;;;1.17;0.85;;;;;;;8.91;100.00;99224.69;5028949;28;20044;-78
2024/02/22 07:02:52;;;;;;;4.07;0.90;;;;;;;8.91;100.00;99227.25;5028818;28;20040;-78
2024/02/22 07:05:18;;;;;;;4.10;1.50;;;;;;;8.96;100.00;99217.19;5026840;28;20111;-78
2024/02/22 07:07:43;;;;;;;4.25;1.35;;;;;;;8.94;100.00;99208.81;5046955;28;20056;-79
2024/02/22 07:10:13;;;;;;;2.88;1.58;;;;;;;9.00;100.00;99202.09;5047483;28;20032;-79
2024/02/22 07:12:42;;;;;;;4.57;1.05;;;;;;;9.11;100.00;99199.81;5034976;28;20049;-79
2024/02/22 07:15:08;;;;;;;1.92;1.35;;;;;;;9.18;100.00;99199.09;5046541;28;20067;-79
2024/02/22 07:17:34;;;;;;;1.80;1.20;;;;;;;9.14;100.00;99193.50;5030343;28;20148;-80
2024/02/22 07:19:59;;;;;;;1.80;1.00;;;;;;;9.19;100.00;99191.13;5034091;28;20029;-77
2024/02/22 07:22:25;;;;;;;3.25;1.40;;;;;;;9.24;100.00;99182.84;5032760;28;20036;-79
2024/02/22 07:24:50;;;;;;;1.60;1.00;;;;;;;9.18;100.00;99181.00;5050448;28;20028;-79
2024/02/22 07:27:17;;;;;;;1.92;0.90;;;;;;;9.19;100.00;99185.16;5018165;28;20048;-79
2024/02/22 07:29:43;;;;;;;1.95;1.05;;;;;;;9.19;100.00;99174.81;5031274;28;20040;-79
2024/02/22 07:32:08;;;;;;;2.65;1.20;;;;;;;9.13;100.00;99176.38;5048436;28;20415;-78
2024/02/22 07:34:34;;;;;;;1.63;1.08;;;;;;;9.23;100.00;99169.09;5047563;28;20025;-79
2024/02/22 07:37:00;;;;;;;2.25;0.98;;;;;;;9.16;100.00;99153.53;5039819;28;20531;-78
2024/02/22 07:39:25;;;;;;;4.07;0.90;;;;;;;9.20;100.00;99145.41;5044515;28;20507;-78
2024/02/22 07:41:51;;;;;;;1.73;0.80;;;;;;;9.26;100.00;99136.88;5021319;28;20041;-78
2024/02/22 07:44:17;;;;;;;6.45;2.75;;;;;;;9.28;100.00;99147.84;5035337;28;20032;-78
2024/02/22 07:46:43;;;;;;;1.40;1.00;;;;;;;9.26;100.00;99142.06;5029279;28;20040;-79
2024/02/22 07:49:08;;;;;;;1.73;1.10;;;;;;;9.28;100.00;99140.09;5031383;28;20463;-78
2024/02/22 07:51:34;;;;;;;5.15;1.10;;;;;;;9.37;100.00;99136.38;5015353;28;20104;-79
2024/02/22 07:53:59;;;;;;;1.20;0.68;;;;;;;9.33;100.00;99127.41;5032867;28;20570;-78
2024/02/22 07:56:25;;;;;;;4.53;0.90;;;;;;;9.33;100.00;99123.00;5031719;28;20045;-78
2024/02/22 07:58:53;;;;;;;1.52;0.50;;;;;;;9.37;100.00;99126.03;5018827;28;20028;-79
2024/02/22 08:01:19;;;;;;;0.90;0.50;;;;;;;9.37;100.00;99123.44;5027657;28;20087;-78
2024/02/22 08:03:45;;;;;;;3.05;0.80;;;;;;;9.38;100.00;99119.88;5031490;28;20997;-79
2024/02/22 08:06:11;;;;;;;1.88;0.80;;;;;;;9.44;100.00;99111.34;5020834;28;20033;-79
2024/02/22 08:08:38;;;;;;;5.32;2.47;;;;;;;9.48;100.00;99107.38;5034907;28;20036;-79
2024/02/22 08:11:06;;;;;;;3.80;1.38;;;;;;;9.65;100.00;99100.13;5011284;28;20037;-78
2024/02/22 08:13:31;;;;;;;3.10;1.70;;;;;;;9.64;100.00;99092.53;5049670;28;20591;-78
2024/02/22 08:16:05;;;;;;;2.28;1.00;;;;;;;9.64;100.00;99082.19;5013765;28;20065;-79
2024/02/22 08:18:32;;;;;;;0.50;0.40;;;;;;;9.59;100.00;99084.53;5031838;28;20129;-78
2024/02/22 08:20:58;;;;;;;1.65;0.40;;;;;;;9.54;100.00;99078.16;5048776;28;20139;-78
2024/02/22 08:23:23;;;;;;;0.90;0.50;;;;;;;9.69;100.00;99067.69;5046367;28;20244;-79
2024/02/22 08:25:49;;;;;;;1.23;0.60;;;;;;;9.68;100.00;99052.34;5031458;28;20036;-79
2024/02/22 08:28:15;;;;;;;1.13;0.80;;;;;;;9.70;100.00;99052.94;5049419;28;20423;-78
2024/02/22 08:30:41;;;;;;;1.52;0.70;;;;;;;9.75;100.00;99045.41;5014709;28;21298;-78
2024/02/22 08:33:06;;;;;;;2.55;1.08;;;;;;;9.81;100.00;99043.84;5017842;28;20029;-78
2024/02/22 08:35:31;;;;;;;6.38;1.65;;;;;;;9.86;100.00;99037.09;5020867;28;20153;-79
2024/02/22 08:37:57;;;;;;;2.17;0.70;;;;;;;9.86;100.00;99026.75;5030680;28;20062;-78
2024/02/22 08:40:23;;;;;;;1.27;0.50;;;;;;;9.91;100.00;99026.97;5031740;28;20040;-79
2024/02/22 08:42:48;;;;;;;2.83;0.75;;;;;;;9.92;100.00;99012.22;5018228;28;20055;-79
2024/02/22 08:45:15;;;;;;;1.40;0.90;;;;;;;9.99;100.00;99007.06;5032138;28;20032;-79
2024/02/22 08:47:44;;;;;;;1.58;0.77;;;;;;;9.90;100.00;99004.63;5027819;28;20582;-79
2024/02/22 08:50:13;;;;;;;3.72;0.82;;;;;;;9.98;100.00;98997.69;5032224;28;20037;-78
2024/02/22 08:52:42;;;;;;;2.63;0.85;;;;;;;9.98;100.00;98987.34;5015059;28;20072;-79
2024/02/22 08:55:11;;;;;;;6.85;0.90;;;;;;;10.07;100.00;98984.38;5028003;28;20071;-79
2024/02/22 08:57:37;;;;;;;3.45;0.60;;;;;;;10.15;100.00;98970.44;5030577;28;20496;-79
2024/02/22 09:00:05;;;;;;;4.05;1.02;;;;;;;10.16;100.00;98971.25;5014960;28;20040;-78
2024/02/22 09:02:31;;;;;;;6.88;0.82;;;;;;;10.26;100.00;98969.84;5029579;28;20044;-79
2024/02/22 09:04:56;;;;;;;4.60;0.98;;;;;;;10.26;100.00;98959.47;5032097;28;20119;-79
2024/02/22 09:07:22;;;;;;;8.68;0.90;;;;;;;10.33;100.00;98947.38;5030753;28;20094;-78
2024/02/22 09:09:48;;;;;;;3.58;0.80;;;;;;;10.24;100.00;98955.50;5031667;28;20041;-79
2024/02/22 09:12:14;;;;;;;2.92;1.63;;;;;;;10.29;100.00;98946.16;5028213;28;20503;-78
2024/02/22 09:14:40;;;;;;;6.47;0.98;;;;;;;10.25;100.00;98950.13;5030210;28;20079;-78
2024/02/22 09:17:05;;;;;;;3.40;0.77;;;;;;;10.29;100.00;98943.56;5027224;28;20151;-78
2024/02/22 09:19:30;;;;;;;6.43;1.27;;;;;;;10.31;100.00;98933.03;5029569;28;20032;-78
2024/02/22 09:21:59;;;;;;;4.00;0.70;;;;;;;10.29;100.00;98937.59;5026180;28;20092;-79
2024/02/22 09:24:25;;;;;;;5.78;0.80;;;;;;;10.31;100.00;98926.03;5031449;28;20547;-78
2024/02/22 09:26:50;;;;;;;3.20;0.80;;;;;;;10.42;100.00;98927.25;5043883;28;20040;-77
2024/02/22 09:29:16;;;;;;;0.98;0.55;;;;;;;10.43;100.00;98915.06;5048804;28;20036;-78
2024/02/22 09:31:41;;;;;;;7.03;1.40;;;;;;;10.42;100.00;98906.50;5028891;28;20407;-79
2024/02/22 09:34:07;;;;;;;5.20;1.27;;;;;;;10.42;100.00;98903.13;5016441;28;20107;-79
2024/02/22 09:36:32;;;;;;;5.57;1.83;;;;;;;10.41;100.00;98897.13;5031248;28;20632;-78
2024/02/22 09:38:58;;;;;;;5.85;0.98;;;;;;;10.38;100.00;98886.38;5027176;28;20739;-78
2024/02/22 09:41:25;;;;;;;5.57;1.25;;;;;;;10.36;100.00;98875.41;5046495;28;20098;-78
2024/02/22 09:43:52;;;;;;;1.50;0.77;;;;;;;10.28;100.00;98868.63;5014717;28;20040;-79
2024/02/22 09:46:18;;;;;;;2.58;0.60;;;;;;;10.37;100.00;98864.06;5028996;28;20065;-79
2024/02/22 09:48:44;;;;;;;2.40;0.45;;;;;;;10.42;100.00;98849.50;5031392;28;20033;-78
2024/02/22 09:51:12;;;;;;;0.70;0.43;;;;;;;10.37;100.00;98848.53;5030070;28;20035;-78
2024/02/22 09:53:37;;;;;;;3.60;0.47;;;;;;;10.44;100.00;98844.94;5028594;28;20037;-79
2024/02/22 09:56:04;;;;;;;2.20;0.55;;;;;;;10.49;100.00;98832.16;5029654;28;20483;-78
2024/02/22 09:58:30;;;;;;;0.88;0.50;;;;;;;10.50;100.00;98827.78;5040288;28;20068;-78
2024/02/22 10:00:56;;;;;;;2.10;0.55;;;;;;;10.60;100.00;98824.75;5029848;28;20060;-78
2024/02/22 10:03:31;;;;;;;3.67;0.45;;;;;;;10.69;100.00;98807.97;5049493;28;20021;-78
2024/02/22 10:05:58;;;;;;;2.08;0.40;;;;;;;10.79;100.00;98802.34;5045545;28;20037;-78
2024/02/22 10:08:23;;;;;;;0.52;0.43;;;;;;;10.87;100.00;98795.16;5026524;28;20385;-79
2024/02/22 10:10:50;;;;;;;1.75;1.10;;;;;;;10.90;100.00;98786.94;5030922;28;20064;-78
2024/02/22 10:13:20;;;;;;;2.50;0.90;;;;;;;10.95;100.00;98783.75;5051841;28;21256;-79
2024/02/22 10:15:46;;;;;;;7.40;2.95;;;;;;;11.09;100.00;98772.31;5047408;28;20045;-81
2024/02/22 10:18:11;;;;;;;2.65;1.42;;;;;;;11.18;100.00;98757.28;5030868;28;20032;-78
2024/02/22 10:20:37;;;;;;;1.50;0.95;;;;;;;11.20;100.00;98752.66;5009331;28;20037;-79
2024/02/22 10:23:06;;;;;;;0.98;0.60;;;;;;;11.27;100.00;98744.84;5046452;28;20466;-79
2024/02/22 10:25:32;;;;;;;0.40;0.40;;;;;;;11.38;100.00;98738.19;5028641;28;20442;-78
2024/02/22 10:27:57;;;;;;;0.55;0.45;;;;;;;11.40;100.00;98733.59;5030028;28;20037;-78
2024/02/22 10:30:26;;;;;;;2.60;0.47;;;;;;;11.48;100.00;98723.72;5029057;28;20035;-79
2024/02/22 10:32:55;;;;;;;0.70;0.50;;;;;;;11.55;100.00;98709.91;5030918;28;20103;-78
2024/02/22 10:35:23;;;;;;;6.35;1.98;;;;;;;11.57;100.00;98710.50;5014044;28;20110;-79
2024/02/22 10:37:52;;;;;;;3.08;0.35;;;;;;;11.58;100.00;98712.06;5014313;28;20043;-78
2024/02/22 10:40:18;;;;;;;0.82;0.38;;;;;;;11.56;100.00;98717.47;5046743;28;20048;-78
2024/02/22 10:42:44;;;;;;;0.88;0.35;;;;;;;11.60;100.00;98710.06;5027953;28;20048;-78
2024/02/22 10:45:10;;;;;;;0.70;0.43;;;;;;;11.68;100.00;98697.59;5015735;28;20031;-79
2024/02/22 10:47:37;;;;;;;1.90;0.50;;;;;;;11.79;100.00;98697.91;5025247;28;20813;-79
2024/02/22 10:50:04;;;;;;;1.10;0.70;;;;;;;11.86;100.00;98681.25;5027667;28;20103;-79
2024/02/22 10:52:35;;;;;;;0.55;0.30;;;;;;;11.87;100.00;98662.06;5030459;28;20068;-79
2024/02/22 10:55:06;;;;;;;0.75;0.40;;;;;;;11.99;100.00;98666.56;5035259;28;20029;-79
2024/02/22 10:57:34;;;;;;;2.38;0.50;;;;;;;12.10;100.00;98659.88;5038452;28;20044;-79
2024/02/22 11:00:01;;;;;;;1.30;0.50;;;;;;;11.99;100.00;98643.97;5039953;28;20103;-79
2024/02/22 11:02:28;;;;;;;2.22;0.60;;;;;;;12.08;100.00;98647.88;5014514;28;20044;-78
2024/02/22 11:05:04;;;;;;;3.05;0.98;;;;;;;12.02;100.00;98648.75;5007199;28;20053;-78
2024/02/22 11:07:32;;;;;;;4.03;0.73;;;;;;;12.09;100.00;98651.25;5033918;28;20033;-78
2024/02/22 11:10:06;;;;;;;1.65;0.50;;;;;;;12.10;100.00;98636.47;5046317;28;20032;-78
2024/02/22 11:12:33;;;;;;;0.40;0.28;;;;;;;12.20;100.00;98632.34;5034491;28;20447;-78
2024/02/22 11:15:09;;;;;;;0.75;0.40;;;;;;;12.11;100.00;98638.06;5031386;28;20029;-78
2024/02/22 11:17:36;;;;;;;0.57;0.30;;;;;;;12.16;100.00;98625.22;5044816;28;20539;-79
2024/02/22 11:20:06;;;;;;;1.35;0.30;;;;;;;12.13;100.00;98615.25;5030084;28;20087;-79
2024/02/22 11:22:36;;;;;;;1.15;0.50;;;;;;;12.18;100.00;98610.97;5029315;28;20052;-79
2024/02/22 11:25:07;;;;;;;1.42;0.60;;;;;;;12.15;100.00;98606.25;5034490;28;20086;-79
2024/02/22 11:27:34;;;;;;;0.47;0.30;;;;;;;12.18;100.00;98592.00;5013950;28;20068;-79